sensor_id;sensor_type;location;lat;lon;timestamp;pressure;altitude;pressure_sealevel;temperature;humidity
48527;BME280;34317;51.660;5.824;2023-07-13T00:01:55;101333.44;;;19.55;49.03
48527;BME280;34317;51.660;5.824;2023-07-13T00:04:24;101339.03;;;19.52;49.11
48527;BME280;34317;51.660;5.824;2023-07-13T00:06:53;101341.94;;;19.49;49.01
48527;BME280;34317;51.660;5.824;2023-07-13T00:09:21;101346.81;;;19.44;49.29
48527;BME280;34317;51.660;5.824;2023-07-13T00:11:55;101352.63;;;19.38;49.25
48527;BME280;34317;51.660;5.824;2023-07-13T00:14:25;101342.13;;;19.35;49.23
48527;BME280;34317;51.660;5.824;2023-07-13T00:16:52;101346.00;;;19.31;49.25
48527;BME280;34317;51.660;5.824;2023-07-13T00:19:20;101342.56;;;19.29;49.38
48527;BME280;34317;51.660;5.824;2023-07-13T00:21:47;101335.72;;;19.24;49.52
48527;BME280;34317;51.660;5.824;2023-07-13T00:24:16;101350.13;;;19.23;49.58
48527;BME280;34317;51.660;5.824;2023-07-13T00:26:49;101352.06;;;19.21;49.81
48527;BME280;34317;51.660;5.824;2023-07-13T00:29:16;101359.38;;;19.19;49.85
48527;BME280;34317;51.660;5.824;2023-07-13T00:31:43;101359.38;;;19.19;49.78
48527;BME280;34317;51.660;5.824;2023-07-13T00:34:11;101355.94;;;19.17;49.77
48527;BME280;34317;51.660;5.824;2023-07-13T00:36:38;101352.50;;;19.15;49.85
48527;BME280;34317;51.660;5.824;2023-07-13T00:39:06;101350.81;;;19.14;49.78
48527;BME280;34317;51.660;5.824;2023-07-13T00:41:33;101353.38;;;19.16;49.73
48527;BME280;34317;51.660;5.824;2023-07-13T00:44:00;101353.38;;;19.16;49.90
48527;BME280;34317;51.660;5.824;2023-07-13T00:46:33;101353.38;;;19.16;50.30
48527;BME280;34317;51.660;5.824;2023-07-13T00:49:08;101342.75;;;19.14;50.03
48527;BME280;34317;51.660;5.824;2023-07-13T00:51:41;101343.69;;;19.13;49.95
48527;BME280;34317;51.660;5.824;2023-07-13T00:54:12;101345.63;;;19.11;50.06
48527;BME280;34317;51.660;5.824;2023-07-13T00:56:41;101350.28;;;19.09;50.01
48527;BME280;34317;51.660;5.824;2023-07-13T00:59:11;101354.91;;;19.07;50.10
48527;BME280;34317;51.660;5.824;2023-07-13T01:01:39;101351.47;;;19.05;50.16
48527;BME280;34317;51.660;5.824;2023-07-13T01:04:06;101357.06;;;19.02;50.27
48527;BME280;34317;51.660;5.824;2023-07-13T01:06:36;101355.34;;;19.01;50.37
48527;BME280;34317;51.660;5.824;2023-07-13T01:09:06;101357.94;;;19.02;50.42
48527;BME280;34317;51.660;5.824;2023-07-13T01:11:34;101362.41;;;19.02;50.58
48527;BME280;34317;51.660;5.824;2023-07-13T01:14:03;101360.63;;;19.02;50.58
48527;BME280;34317;51.660;5.824;2023-07-13T01:16:33;101357.06;;;19.02;50.49
48527;BME280;34317;51.660;5.824;2023-07-13T01:19:01;101355.34;;;19.01;50.62
48527;BME280;34317;51.660;5.824;2023-07-13T01:21:32;101358.13;;;18.99;50.54
48527;BME280;34317;51.660;5.824;2023-07-13T01:24:00;101360.94;;;18.98;50.58
48527;BME280;34317;51.660;5.824;2023-07-13T01:26:27;101364.59;;;18.97;50.61
48527;BME280;34317;51.660;5.824;2023-07-13T01:28:54;101370.19;;;18.94;50.64
48527;BME280;34317;51.660;5.824;2023-07-13T01:31:23;101359.66;;;18.91;50.71
48527;BME280;34317;51.660;5.824;2023-07-13T01:33:51;101350.84;;;18.89;50.85
48527;BME280;34317;51.660;5.824;2023-07-13T01:36:20;101359.88;;;18.88;50.71
48527;BME280;34317;51.660;5.824;2023-07-13T01:38:48;101359.16;;;18.85;50.88
48527;BME280;34317;51.660;5.824;2023-07-13T01:41:15;101350.31;;;18.83;50.98
48527;BME280;34317;51.660;5.824;2023-07-13T01:43:42;101354.94;;;18.81;51.02
48527;BME280;34317;51.660;5.824;2023-07-13T01:46:10;101358.59;;;18.80;51.15
48527;BME280;34317;51.660;5.824;2023-07-13T01:48:50;101350.63;;;18.79;51.44
48527;BME280;34317;51.660;5.824;2023-07-13T01:51:18;101358.78;;;18.77;51.21
48527;BME280;34317;51.660;5.824;2023-07-13T01:53:46;101354.50;;;18.75;51.29
48527;BME280;34317;51.660;5.824;2023-07-13T01:56:13;101354.72;;;18.72;51.30
48527;BME280;34317;51.660;5.824;2023-07-13T01:58:41;101353.88;;;18.71;51.49
48527;BME280;34317;51.660;5.824;2023-07-13T02:01:08;101350.44;;;18.69;51.54
48527;BME280;34317;51.660;5.824;2023-07-13T02:03:35;101357.75;;;18.67;51.46
48527;BME280;34317;51.660;5.824;2023-07-13T02:06:02;101350.63;;;18.66;51.60
48527;BME280;34317;51.660;5.824;2023-07-13T02:08:31;101358.69;;;18.66;51.68
48527;BME280;34317;51.660;5.824;2023-07-13T02:10:59;101367.94;;;18.62;51.54
48527;BME280;34317;51.660;5.824;2023-07-13T02:13:27;101363.50;;;18.61;51.88
48527;BME280;34317;51.660;5.824;2023-07-13T02:15:54;101358.38;;;18.58;51.85
48527;BME280;34317;51.660;5.824;2023-07-13T02:18:21;101363.75;;;18.58;51.82
48527;BME280;34317;51.660;5.824;2023-07-13T02:20:48;101363.97;;;18.55;51.90
48527;BME280;34317;51.660;5.824;2023-07-13T02:23:16;101360.53;;;18.53;52.15
48527;BME280;34317;51.660;5.824;2023-07-13T02:25:43;101358.81;;;18.52;51.96
48527;BME280;34317;51.660;5.824;2023-07-13T02:28:10;101357.09;;;18.51;52.18
48527;BME280;34317;51.660;5.824;2023-07-13T02:30:38;101355.38;;;18.49;52.02
48527;BME280;34317;51.660;5.824;2023-07-13T02:33:05;101355.59;;;18.46;52.26
48527;BME280;34317;51.660;5.824;2023-07-13T02:35:33;101365.59;;;18.44;52.40
48527;BME280;34317;51.660;5.824;2023-07-13T02:38:00;101359.47;;;18.42;52.61
48527;BME280;34317;51.660;5.824;2023-07-13T02:40:27;101370.19;;;18.42;52.59
48527;BME280;34317;51.660;5.824;2023-07-13T02:42:54;101366.63;;;18.42;52.62
48527;BME280;34317;51.660;5.824;2023-07-13T02:45:21;101361.41;;;18.40;52.44
48527;BME280;34317;51.660;5.824;2023-07-13T02:47:48;101373.09;;;18.39;52.61
48527;BME280;34317;51.660;5.824;2023-07-13T02:50:17;101374.03;;;18.38;52.78
48527;BME280;34317;51.660;5.824;2023-07-13T02:52:44;101365.25;;;18.36;53.16
48527;BME280;34317;51.660;5.824;2023-07-13T02:55:11;101370.59;;;18.36;52.92
48527;BME280;34317;51.660;5.824;2023-07-13T02:57:39;101374.28;;;18.35;52.98
48527;BME280;34317;51.660;5.824;2023-07-13T03:00:07;101379.63;;;18.35;53.06
48527;BME280;34317;51.660;5.824;2023-07-13T03:02:34;101374.28;;;18.35;53.13
48527;BME280;34317;51.660;5.824;2023-07-13T03:05:02;101376.19;;;18.33;53.10
48527;BME280;34317;51.660;5.824;2023-07-13T03:07:31;101372.78;;;18.31;53.39
48527;BME280;34317;51.660;5.824;2023-07-13T03:09:59;101377.38;;;18.29;53.24
48527;BME280;34317;51.660;5.824;2023-07-13T03:12:36;101378.34;;;18.28;53.19
48527;BME280;34317;51.660;5.824;2023-07-13T03:15:08;101392.69;;;18.27;53.30
48527;BME280;34317;51.660;5.824;2023-07-13T03:17:39;101393.66;;;18.26;53.24
48527;BME280;34317;51.660;5.824;2023-07-13T03:20:08;101395.59;;;18.24;53.42
48527;BME280;34317;51.660;5.824;2023-07-13T03:22:36;101401.91;;;18.23;53.45
48527;BME280;34317;51.660;5.824;2023-07-13T03:25:04;101389.50;;;18.22;53.52
48527;BME280;34317;51.660;5.824;2023-07-13T03:27:32;101386.06;;;18.20;53.48
48527;BME280;34317;51.660;5.824;2023-07-13T03:29:59;101383.47;;;18.18;53.81
48527;BME280;34317;51.660;5.824;2023-07-13T03:32:26;101379.06;;;18.17;54.00
48527;BME280;34317;51.660;5.824;2023-07-13T03:34:53;101391.63;;;18.17;53.80
48527;BME280;34317;51.660;5.824;2023-07-13T03:37:21;101401.59;;;18.15;54.04
48527;BME280;34317;51.660;5.824;2023-07-13T03:39:48;101400.59;;;18.16;53.88
48527;BME280;34317;51.660;5.824;2023-07-13T03:42:18;101398.91;;;18.15;53.92
48527;BME280;34317;51.660;5.824;2023-07-13T03:44:45;101402.53;;;18.14;53.93
48527;BME280;34317;51.660;5.824;2023-07-13T03:47:19;101399.84;;;18.14;54.31
48527;BME280;34317;51.660;5.824;2023-07-13T03:49:47;101398.91;;;18.15;54.10
48527;BME280;34317;51.660;5.824;2023-07-13T03:52:14;101401.59;;;18.15;54.12
48527;BME280;34317;51.660;5.824;2023-07-13T03:54:41;101407.91;;;18.14;54.37
48527;BME280;34317;51.660;5.824;2023-07-13T03:57:09;101413.25;;;18.14;54.33
48527;BME280;34317;51.660;5.824;2023-07-13T03:59:36;101409.63;;;18.15;54.33
48527;BME280;34317;51.660;5.824;2023-07-13T04:02:04;101416.69;;;18.16;54.11
48527;BME280;34317;51.660;5.824;2023-07-13T04:04:33;101418.44;;;18.17;54.36
48527;BME280;34317;51.660;5.824;2023-07-13T04:07:01;101411.34;;;18.16;54.44
48527;BME280;34317;51.660;5.824;2023-07-13T04:09:28;101415.75;;;18.17;54.52
48527;BME280;34317;51.660;5.824;2023-07-13T04:11:55;101418.44;;;18.17;54.61
48527;BME280;34317;51.660;5.824;2023-07-13T04:14:22;101416.50;;;18.19;54.41
48527;BME280;34317;51.660;5.824;2023-07-13T04:16:49;101419.19;;;18.19;54.74
48527;BME280;34317;51.660;5.824;2023-07-13T04:19:17;101416.50;;;18.19;54.86
48527;BME280;34317;51.660;5.824;2023-07-13T04:21:44;101424.34;;;18.22;54.82
48527;BME280;34317;51.660;5.824;2023-07-13T04:24:12;101422.50;;;18.22;54.84
48527;BME280;34317;51.660;5.824;2023-07-13T04:26:39;101419.72;;;18.24;54.88
48527;BME280;34317;51.660;5.824;2023-07-13T04:29:07;101429.47;;;18.25;55.10
48527;BME280;34317;51.660;5.824;2023-07-13T04:31:34;101426.78;;;18.25;54.99
48527;BME280;34317;51.660;5.824;2023-07-13T04:34:01;101435.59;;;18.27;55.21
48527;BME280;34317;51.660;5.824;2023-07-13T04:36:30;101422.97;;;18.29;55.14
48527;BME280;34317;51.660;5.824;2023-07-13T04:38:57;101426.41;;;18.31;55.21
48527;BME280;34317;51.660;5.824;2023-07-13T04:41:24;101433.47;;;18.32;55.06
48527;BME280;34317;51.660;5.824;2023-07-13T04:43:51;101434.97;;;18.36;55.31
48527;BME280;34317;51.660;5.824;2023-07-13T04:46:21;101440.13;;;18.39;55.38
48527;BME280;34317;51.660;5.824;2023-07-13T04:48:49;101443.38;;;18.44;55.40
48527;BME280;34317;51.660;5.824;2023-07-13T04:51:16;101444.88;;;18.48;55.48
48527;BME280;34317;51.660;5.824;2023-07-13T04:53:43;101449.06;;;18.53;55.51
48527;BME280;34317;51.660;5.824;2023-07-13T04:56:11;101446.16;;;18.56;55.68
48527;BME280;34317;51.660;5.824;2023-07-13T04:58:38;101445.94;;;18.59;55.73
48527;BME280;34317;51.660;5.824;2023-07-13T05:01:07;101440.16;;;18.65;55.90
48527;BME280;34317;51.660;5.824;2023-07-13T05:03:37;101450.66;;;18.68;55.93
48527;BME280;34317;51.660;5.824;2023-07-13T05:06:06;101450.25;;;18.74;55.95
48527;BME280;34317;51.660;5.824;2023-07-13T05:08:36;101450.88;;;18.78;55.93
48527;BME280;34317;51.660;5.824;2023-07-13T05:11:04;101455.00;;;18.83;55.96
48527;BME280;34317;51.660;5.824;2023-07-13T05:13:32;101456.28;;;18.91;55.96
48527;BME280;34317;51.660;5.824;2023-07-13T05:16:02;101461.00;;;19.00;56.01
48527;BME280;34317;51.660;5.824;2023-07-13T05:18:30;101459.72;;;19.05;56.10
48527;BME280;34317;51.660;5.824;2023-07-13T05:21:06;101464.78;;;19.10;55.97
48527;BME280;34317;51.660;5.824;2023-07-13T05:23:34;101473.34;;;19.15;56.15
48527;BME280;34317;51.660;5.824;2023-07-13T05:26:03;101472.91;;;19.21;56.20
48527;BME280;34317;51.660;5.824;2023-07-13T05:28:34;101474.31;;;19.27;56.08
48527;BME280;34317;51.660;5.824;2023-07-13T05:31:01;101471.16;;;19.33;56.26
48527;BME280;34317;51.660;5.824;2023-07-13T05:33:29;101475.13;;;19.40;56.21
48527;BME280;34317;51.660;5.824;2023-07-13T05:35:56;101477.47;;;19.45;56.27
48527;BME280;34317;51.660;5.824;2023-07-13T05:38:23;101478.97;;;19.49;56.32
48527;BME280;34317;51.660;5.824;2023-07-13T05:40:54;101480.44;;;19.53;56.28
48527;BME280;34317;51.660;5.824;2023-07-13T05:43:22;101489.03;;;19.58;56.30
48527;BME280;34317;51.660;5.824;2023-07-13T05:45:53;101486.88;;;19.63;56.48
48527;BME280;34317;51.660;5.824;2023-07-13T05:48:20;101491.81;;;19.70;56.21
48527;BME280;34317;51.660;5.824;2023-07-13T05:50:47;101499.59;;;19.74;56.29
48527;BME280;34317;51.660;5.824;2023-07-13T05:53:15;101499.22;;;19.79;56.42
48527;BME280;34317;51.660;5.824;2023-07-13T05:55:44;101496.31;;;19.82;56.45
48527;BME280;34317;51.660;5.824;2023-07-13T05:58:11;101501.25;;;19.88;56.36
48527;BME280;34317;51.660;5.824;2023-07-13T06:00:38;101501.66;;;19.95;56.45
48527;BME280;34317;51.660;5.824;2023-07-13T06:03:06;101495.94;;;19.99;56.32
48527;BME280;34317;51.660;5.824;2023-07-13T06:05:35;101496.44;;;20.05;56.58
48527;BME280;34317;51.660;5.824;2023-07-13T06:08:04;101499.63;;;20.10;56.33
48527;BME280;34317;51.660;5.824;2023-07-13T06:10:34;101502.84;;;20.15;56.40
48527;BME280;34317;51.660;5.824;2023-07-13T06:13:01;101513.38;;;20.18;56.39
48527;BME280;34317;51.660;5.824;2023-07-13T06:15:30;101502.38;;;20.21;56.36
48527;BME280;34317;51.660;5.824;2023-07-13T06:17:57;101510.97;;;20.26;56.20
48527;BME280;34317;51.660;5.824;2023-07-13T06:20:24;101515.13;;;20.30;56.18
48527;BME280;34317;51.660;5.824;2023-07-13T06:22:52;101510.28;;;20.35;56.49
48527;BME280;34317;51.660;5.824;2023-07-13T06:25:19;101520.56;;;20.41;56.44
48527;BME280;34317;51.660;5.824;2023-07-13T06:27:46;101521.81;;;20.49;56.36
48527;BME280;34317;51.660;5.824;2023-07-13T06:30:13;101525.88;;;20.54;56.19
48527;BME280;34317;51.660;5.824;2023-07-13T06:32:40;101527.25;;;20.60;56.36
48527;BME280;34317;51.660;5.824;2023-07-13T06:35:08;101523.25;;;20.66;56.27
48527;BME280;34317;51.660;5.824;2023-07-13T06:37:35;101522.66;;;20.73;56.25
48527;BME280;34317;51.660;5.824;2023-07-13T06:40:03;101524.91;;;20.79;56.19
48527;BME280;34317;51.660;5.824;2023-07-13T06:42:30;101522.69;;;20.85;56.06
48527;BME280;34317;51.660;5.824;2023-07-13T06:44:57;101524.16;;;20.89;55.82
48527;BME280;34317;51.660;5.824;2023-07-13T06:47:25;101523.69;;;20.95;55.93
48527;BME280;34317;51.660;5.824;2023-07-13T06:49:52;101532.03;;;21.03;55.98
48527;BME280;34317;51.660;5.824;2023-07-13T06:52:19;101526.88;;;21.11;56.00
48527;BME280;34317;51.660;5.824;2023-07-13T06:54:46;101528.84;;;21.20;55.90
48527;BME280;34317;51.660;5.824;2023-07-13T06:57:13;101532.66;;;21.29;55.74
48527;BME280;34317;51.660;5.824;2023-07-13T06:59:41;101533.00;;;21.36;55.59
48527;BME280;34317;51.660;5.824;2023-07-13T07:02:10;101536.19;;;21.41;55.25
48527;BME280;34317;51.660;5.824;2023-07-13T07:04:38;101537.69;;;21.45;55.37
48527;BME280;34317;51.660;5.824;2023-07-13T07:07:05;101537.47;;;21.48;55.28
48527;BME280;34317;51.660;5.824;2023-07-13T07:09:33;101537.22;;;21.51;55.05
48527;BME280;34317;51.660;5.824;2023-07-13T07:12:04;101546.03;;;21.53;54.89
48527;BME280;34317;51.660;5.824;2023-07-13T07:14:42;101544.09;;;21.55;54.95
48527;BME280;34317;51.660;5.824;2023-07-13T07:17:09;101545.78;;;21.56;54.75
48527;BME280;34317;51.660;5.824;2023-07-13T07:19:38;101545.78;;;21.56;54.73
48527;BME280;34317;51.660;5.824;2023-07-13T07:22:05;101546.50;;;21.58;54.85
48527;BME280;34317;51.660;5.824;2023-07-13T07:24:33;101549.22;;;21.58;54.67
48527;BME280;34317;51.660;5.824;2023-07-13T07:27:00;101545.53;;;21.60;54.58
48527;BME280;34317;51.660;5.824;2023-07-13T07:29:30;101554.38;;;21.62;54.67
48527;BME280;34317;51.660;5.824;2023-07-13T07:32:00;101559.53;;;21.65;54.56
48527;BME280;34317;51.660;5.824;2023-07-13T07:34:44;101555.81;;;21.66;54.43
48527;BME280;34317;51.660;5.824;2023-07-13T07:37:13;101562.22;;;21.65;54.41
48527;BME280;34317;51.660;5.824;2023-07-13T07:39:44;101560.50;;;21.64;54.44
48527;BME280;34317;51.660;5.824;2023-07-13T07:42:32;101557.78;;;21.64;54.55
48527;BME280;34317;51.660;5.824;2023-07-13T07:44:59;101557.78;;;21.64;54.35
48527;BME280;34317;51.660;5.824;2023-07-13T07:47:28;101555.09;;;21.64;54.62
48527;BME280;34317;51.660;5.824;2023-07-13T07:49:55;101559.25;;;21.68;54.53
48527;BME280;34317;51.660;5.824;2023-07-13T07:52:23;101570.53;;;21.73;54.55
48527;BME280;34317;51.660;5.824;2023-07-13T07:54:50;101556.81;;;21.76;54.53
48527;BME280;34317;51.660;5.824;2023-07-13T07:57:20;101564.28;;;21.84;54.62
48527;BME280;34317;51.660;5.824;2023-07-13T07:59:50;101557.25;;;21.92;54.45
48527;BME280;34317;51.660;5.824;2023-07-13T08:02:20;101566.56;;;22.00;54.51
48527;BME280;34317;51.660;5.824;2023-07-13T08:04:50;101566.81;;;22.08;54.50
48527;BME280;34317;51.660;5.824;2023-07-13T08:07:20;101568.00;;;22.15;54.39
48527;BME280;34317;51.660;5.824;2023-07-13T08:09:48;101570.69;;;22.26;54.33
48527;BME280;34317;51.660;5.824;2023-07-13T08:12:19;101570.19;;;22.32;54.06
48527;BME280;34317;51.660;5.824;2023-07-13T08:15:09;101564.03;;;22.42;54.15
48527;BME280;34317;51.660;5.824;2023-07-13T08:17:37;101563.50;;;22.48;53.95
48527;BME280;34317;51.660;5.824;2023-07-13T08:20:04;101558.31;;;22.56;53.92
48527;BME280;34317;51.660;5.824;2023-07-13T08:22:32;101565.63;;;22.65;53.61
48527;BME280;34317;51.660;5.824;2023-07-13T08:24:59;101560.47;;;22.73;53.83
48527;BME280;34317;51.660;5.824;2023-07-13T08:27:28;101562.09;;;22.86;53.69
48527;BME280;34317;51.660;5.824;2023-07-13T08:29:56;101562.03;;;22.97;53.39
48527;BME280;34317;51.660;5.824;2023-07-13T08:32:23;101555.13;;;23.04;53.45
48527;BME280;34317;51.660;5.824;2023-07-13T08:34:51;101556.91;;;23.15;53.12
48527;BME280;34317;51.660;5.824;2023-07-13T08:37:18;101551.56;;;23.25;52.99
48527;BME280;34317;51.660;5.824;2023-07-13T08:39:46;101554.16;;;23.36;53.01
48527;BME280;34317;51.660;5.824;2023-07-13T08:47:42;101555.69;;;23.90;52.22
48527;BME280;34317;51.660;5.824;2023-07-13T08:50:14;101560.66;;;24.05;52.11
48527;BME280;34317;51.660;5.824;2023-07-13T08:52:42;101564.69;;;24.20;51.53
48527;BME280;34317;51.660;5.824;2023-07-13T08:55:15;101557.31;;;24.32;51.23
48527;BME280;34317;51.660;5.824;2023-07-13T08:57:47;101564.13;;;24.46;50.75
48527;BME280;34317;51.660;5.824;2023-07-13T09:00:15;101554.47;;;24.53;50.31
48527;BME280;34317;51.660;5.824;2023-07-13T09:02:54;101557.91;;;24.55;50.21
48527;BME280;34317;51.660;5.824;2023-07-13T09:13:51;101564.69;;;24.20;48.98
48527;BME280;34317;51.660;5.824;2023-07-13T09:16:21;101559.00;;;24.23;49.14
48527;BME280;34317;51.660;5.824;2023-07-13T09:18:51;101551.00;;;24.32;49.55
48527;BME280;34317;51.660;5.824;2023-07-13T09:21:32;101539.06;;;24.44;49.20
48527;BME280;34317;51.660;5.824;2023-07-13T09:24:28;101551.34;;;24.58;49.08
48527;BME280;34317;51.660;5.824;2023-07-13T09:26:51;101544.22;;;24.66;48.48
48527;BME280;34317;51.660;5.824;2023-07-13T09:29:28;101549.03;;;24.73;48.63
48527;BME280;34317;51.660;5.824;2023-07-13T09:31:58;101549.34;;;24.79;48.29
48527;BME280;34317;51.660;5.824;2023-07-13T09:34:28;101548.47;;;24.89;48.03
48527;BME280;34317;51.660;5.824;2023-07-13T09:36:57;101557.56;;;24.97;48.02
48527;BME280;34317;51.660;5.824;2023-07-13T09:39:30;101549.25;;;25.09;47.77
48527;BME280;34317;51.660;5.824;2023-07-13T09:44:49;101551.22;;;25.36;47.26
48527;BME280;34317;51.660;5.824;2023-07-13T09:50:00;101547.34;;;25.66;47.02
48527;BME280;34317;51.660;5.824;2023-07-13T09:52:44;101547.25;;;25.86;46.50
48527;BME280;34317;51.660;5.824;2023-07-13T09:55:36;101547.16;;;26.05;46.56
48527;BME280;34317;51.660;5.824;2023-07-13T09:58:36;101554.13;;;26.26;46.60
48527;BME280;34317;51.660;5.824;2023-07-13T10:01:04;101556.63;;;26.37;45.81
48527;BME280;34317;51.660;5.824;2023-07-13T10:03:36;101549.16;;;26.39;45.43
48527;BME280;34317;51.660;5.824;2023-07-13T10:06:17;101549.50;;;26.36;45.02
48527;BME280;34317;51.660;5.824;2023-07-13T10:08:45;101552.91;;;26.38;44.89
48527;BME280;34317;51.660;5.824;2023-07-13T10:11:22;101545.75;;;26.37;44.76
48527;BME280;34317;51.660;5.824;2023-07-13T10:13:56;101549.72;;;26.42;44.79
48527;BME280;34317;51.660;5.824;2023-07-13T10:16:27;101551.66;;;26.50;44.95
48527;BME280;34317;51.660;5.824;2023-07-13T10:19:15;101552.47;;;26.60;44.33
48527;BME280;34317;51.660;5.824;2023-07-13T10:21:52;101549.75;;;26.60;43.82
48527;BME280;34317;51.660;5.824;2023-07-13T10:24:39;101559.03;;;26.58;43.85
48527;BME280;34317;51.660;5.824;2023-07-13T10:27:16;101547.03;;;26.60;44.06
48527;BME280;34317;51.660;5.824;2023-07-13T10:29:48;101558.97;;;26.68;43.78
48527;BME280;34317;51.660;5.824;2023-07-13T10:32:19;101545.41;;;26.68;43.71
48527;BME280;34317;51.660;5.824;2023-07-13T10:34:49;101541.34;;;26.72;43.30
48527;BME280;34317;51.660;5.824;2023-07-13T10:37:23;101549.50;;;26.72;43.00
48527;BME280;34317;51.660;5.824;2023-07-13T10:39:54;101544.38;;;26.69;43.30
48527;BME280;34317;51.660;5.824;2023-07-13T10:42:37;101550.44;;;26.63;42.83
48527;BME280;34317;51.660;5.824;2023-07-13T10:47:42;101553.06;;;26.54;43.20
48527;BME280;34317;51.660;5.824;2023-07-13T10:50:18;101559.88;;;26.58;43.06
48527;BME280;34317;51.660;5.824;2023-07-13T10:52:49;101561.31;;;26.63;42.78
48527;BME280;34317;51.660;5.824;2023-07-13T10:58:23;101568.03;;;26.76;42.41
48527;BME280;34317;51.660;5.824;2023-07-13T11:01:16;101574.34;;;26.77;42.70
48527;BME280;34317;51.660;5.824;2023-07-13T11:06:15;101568.56;;;26.80;41.99
48527;BME280;34317;51.660;5.824;2023-07-13T11:18:50;101578.06;;;26.40;41.52
48527;BME280;34317;51.660;5.824;2023-07-13T11:21:19;101596.44;;;26.28;41.73
48527;BME280;34317;51.660;5.824;2023-07-13T11:26:50;101620.06;;;26.00;41.60
48527;BME280;34317;51.660;5.824;2023-07-13T11:31:53;101621.09;;;25.52;42.46
48527;BME280;34317;51.660;5.824;2023-07-13T11:34:29;101626.16;;;25.27;42.83
48527;BME280;34317;51.660;5.824;2023-07-13T11:36:59;101626.88;;;25.10;43.34
48527;BME280;34317;51.660;5.824;2023-07-13T11:39:32;101629.03;;;24.96;43.73
48527;BME280;34317;51.660;5.824;2023-07-13T11:42:03;101622.34;;;24.81;44.05
48527;BME280;34317;51.660;5.824;2023-07-13T11:44:34;101627.16;;;24.67;44.21
48527;BME280;34317;51.660;5.824;2023-07-13T11:47:10;101628.06;;;24.58;44.75
48527;BME280;34317;51.660;5.824;2023-07-13T11:49:45;101630.56;;;24.50;44.88
48527;BME280;34317;51.660;5.824;2023-07-13T11:52:31;101629.41;;;24.43;45.08
48527;BME280;34317;51.660;5.824;2023-07-13T11:55:00;101649.75;;;24.27;45.40
48527;BME280;34317;51.660;5.824;2023-07-13T12:00:04;101630.44;;;23.92;46.28
48527;BME280;34317;51.660;5.824;2023-07-13T12:02:41;101657.63;;;23.69;46.70
48527;BME280;34317;51.660;5.824;2023-07-13T12:05:13;101641.88;;;23.43;46.91
48527;BME280;34317;51.660;5.824;2023-07-13T12:07:41;101643.97;;;23.19;47.42
48527;BME280;34317;51.660;5.824;2023-07-13T12:12:36;101630.09;;;22.91;48.65
48527;BME280;34317;51.660;5.824;2023-07-13T12:15:07;101627.28;;;22.92;49.96
48527;BME280;34317;51.660;5.824;2023-07-13T12:17:35;101616.53;;;23.02;50.28
48527;BME280;34317;51.660;5.824;2023-07-13T12:20:17;101614.06;;;23.10;50.29
48527;BME280;34317;51.660;5.824;2023-07-13T12:22:47;101606.13;;;23.19;50.90
48527;BME280;34317;51.660;5.824;2023-07-13T12:25:15;101614.16;;;23.30;51.10
48527;BME280;34317;51.660;5.824;2023-07-13T12:27:49;101604.41;;;23.39;51.03
48527;BME280;34317;51.660;5.824;2023-07-13T12:30:29;101609.13;;;23.46;50.98
48527;BME280;34317;51.660;5.824;2023-07-13T12:33:07;101621.59;;;23.59;50.93
48527;BME280;34317;51.660;5.824;2023-07-13T12:35:45;101612.66;;;23.68;51.15
48527;BME280;34317;51.660;5.824;2023-07-13T12:38:14;101613.81;;;23.75;50.96
48527;BME280;34317;51.660;5.824;2023-07-13T12:40:41;101625.25;;;23.79;51.13
48527;BME280;34317;51.660;5.824;2023-07-13T12:43:12;101620.16;;;23.85;51.68
48527;BME280;34317;51.660;5.824;2023-07-13T12:48:23;101613.69;;;24.17;51.85
48527;BME280;34317;51.660;5.824;2023-07-13T12:51:10;101612.31;;;24.33;51.65
48527;BME280;34317;51.660;5.824;2023-07-13T12:53:42;101605.78;;;24.45;51.55
48527;BME280;34317;51.660;5.824;2023-07-13T12:56:22;101613.75;;;24.56;50.69
48527;BME280;34317;51.660;5.824;2023-07-13T12:58:58;101612.91;;;24.65;50.32
48527;BME280;34317;51.660;5.824;2023-07-13T13:01:29;101592.38;;;24.73;50.17
48527;BME280;34317;51.660;5.824;2023-07-13T13:03:56;101594.66;;;24.87;49.96
48527;BME280;34317;51.660;5.824;2023-07-13T13:06:28;101599.78;;;25.10;50.29
48527;BME280;34317;51.660;5.824;2023-07-13T13:08:57;101585.59;;;25.35;49.89
48527;BME280;34317;51.660;5.824;2023-07-13T13:11:28;101587.66;;;25.61;49.74
48527;BME280;34317;51.660;5.824;2023-07-13T13:13:55;101589.97;;;25.83;49.55
48527;BME280;34317;51.660;5.824;2023-07-13T13:16:23;101593.22;;;25.97;49.09
48527;BME280;34317;51.660;5.824;2023-07-13T13:18:52;101582.13;;;26.08;49.14
48527;BME280;34317;51.660;5.824;2023-07-13T13:21:20;101592.78;;;26.19;48.66
48527;BME280;34317;51.660;5.824;2023-07-13T13:23:47;101591.47;;;26.23;48.71
48527;BME280;34317;51.660;5.824;2023-07-13T13:26:16;101601.34;;;26.25;48.59
48527;BME280;34317;51.660;5.824;2023-07-13T13:28:43;101600.16;;;26.27;48.31
48527;BME280;34317;51.660;5.824;2023-07-13T13:31:11;101607.16;;;26.30;48.44
48527;BME280;34317;51.660;5.824;2023-07-13T13:33:40;101599.00;;;26.30;48.30
48527;BME280;34317;51.660;5.824;2023-07-13T13:36:13;101592.88;;;26.28;48.32
48527;BME280;34317;51.660;5.824;2023-07-13T13:38:42;101590.16;;;26.28;48.10
48527;BME280;34317;51.660;5.824;2023-07-13T13:41:10;101592.16;;;26.26;48.08
48527;BME280;34317;51.660;5.824;2023-07-13T13:43:37;101596.88;;;26.23;47.68
48527;BME280;34317;51.660;5.824;2023-07-13T13:46:05;101594.81;;;26.17;47.84
48527;BME280;34317;51.660;5.824;2023-07-13T13:48:38;101595.72;;;26.08;47.40
48527;BME280;34317;51.660;5.824;2023-07-13T13:51:16;101600.03;;;26.01;47.36
48527;BME280;34317;51.660;5.824;2023-07-13T13:53:44;101608.09;;;25.93;47.47
48527;BME280;34317;51.660;5.824;2023-07-13T13:56:12;101601.84;;;25.82;47.27